North Babylon, New York
Current Conditions -  °F | °C
As of 3:53 PM on Thursday 23 Oct 2014 (Local Time) from KFRG Reporting Station
Broken Clouds Broken Clouds  
Wind Chill: 12°   Ceiling: 2300
Heat Index: 12°   Visibility: 10mi
Dew Point:   Wind: 13mph
Humidity: 77%   Direction: 330°NNW
Pressure: 29.65"   Gusts: 24mph
Location:  40.74°N, 73.32°W
Report Text: KFRG 231953Z 33011G21KT 10SM FEW009 BKN023 12/08 A2965 RMK AO2 SLP041 T01170078
Loading
Personal Weather Stations






























Interactive Weather Map
Tropical Storm Tracking
New forecast layout! Learn more

10-Day Weather Forecast

Advertisements
Track Severe Weather on mobile